EJM65 KPBI-TJSJ
Flight info
| Callsign | EJM65 |
|---|---|
| Flight time | N/A |
| Altitude | 41000 |
| Route | MIXAE4 HALBI DCT ZFP DCT HAGIT Y290 BEANO BEANO3 |
| Aircraft | CL60/M-SADE3FGHIJ3J4J7P2RWXY/HB1D1 |
Departure
| Time | 2026-04-25 00:38 |
|---|---|
| Airport | Palm Beach International Airport (KPBI) |
Arrival
| Time | N/A |
|---|---|
| Airport | Luis Munoz Marin International Airport (TJSJ) |
| Time | Latitude | Longitude | Altitude | Speed | Heading |
|---|---|---|---|---|---|
| 2026-04-24 23:55 | 26.69119 | -80.10726 | 20 ft | 0 kts | 91° |
| 2026-04-25 00:32 | 26.69119 | -80.10709 | 20 ft | 4 kts | 91° |
| 2026-04-25 00:32 | 26.69100 | -80.10676 | 20 ft | 7 kts | 152° |
| 2026-04-25 00:32 | 26.69033 | -80.10667 | 20 ft | 13 kts | 183° |
| 2026-04-25 00:33 | 26.68924 | -80.10671 | 20 ft | 18 kts | 182° |
| 2026-04-25 00:33 | 26.68888 | -80.10673 | 20 ft | 18 kts | 181° |
| 2026-04-25 00:33 | 26.68818 | -80.10675 | 20 ft | 16 kts | 183° |
| 2026-04-25 00:33 | 26.68730 | -80.10679 | 20 ft | 8 kts | 182° |
| 2026-04-25 00:34 | 26.68693 | -80.10680 | 20 ft | 3 kts | 182° |
| 2026-04-25 00:34 | 26.68590 | -80.10689 | 20 ft | 19 kts | 198° |
| 2026-04-25 00:34 | 26.68581 | -80.10694 | 20 ft | 0 kts | 217° |
| 2026-04-25 00:34 | 26.68562 | -80.10745 | 20 ft | 12 kts | 270° |
| 2026-04-25 00:35 | 26.68562 | -80.10750 | 20 ft | 0 kts | 270° |
| 2026-04-25 00:35 | 26.68562 | -80.10758 | 20 ft | 7 kts | 270° |
| 2026-04-25 00:35 | 26.68509 | -80.10815 | 20 ft | 14 kts | 180° |
| 2026-04-25 00:35 | 26.68445 | -80.10818 | 20 ft | 0 kts | 182° |
| 2026-04-25 00:37 | 26.68399 | -80.10820 | 20 ft | 13 kts | 181° |
| 2026-04-25 00:37 | 26.68321 | -80.10783 | 20 ft | 10 kts | 105° |
| 2026-04-25 00:37 | 26.68317 | -80.10756 | 20 ft | 0 kts | 93° |
| 2026-04-25 00:38 | 26.68317 | -80.10752 | 20 ft | 4 kts | 93° |
| 2026-04-25 00:38 | 26.68300 | -80.10422 | 20 ft | 92 kts | 93° |
| 2026-04-25 00:38 | 26.68254 | -80.09405 | 346 ft | 151 kts | 94° |
| 2026-04-25 00:38 | 26.68245 | -80.08224 | 1306 ft | 163 kts | 90° |
| 2026-04-25 00:39 | 26.68242 | -80.06933 | 2239 ft | 175 kts | 91° |
| 2026-04-25 00:39 | 26.68307 | -80.05543 | 3056 ft | 192 kts | 76° |
| 2026-04-25 00:39 | 26.68854 | -80.04078 | 3831 ft | 218 kts | 65° |
| 2026-04-25 00:39 | 26.69553 | -80.02491 | 4520 ft | 242 kts | 65° |
| 2026-04-25 00:40 | 26.70324 | -80.00737 | 5254 ft | 261 kts | 65° |
| 2026-04-25 00:40 | 26.71132 | -79.98890 | 5983 ft | 274 kts | 66° |
| 2026-04-25 00:40 | 26.71628 | -79.96819 | 6670 ft | 281 kts | 89° |
| 2026-04-25 00:40 | 26.71470 | -79.94631 | 6952 ft | 285 kts | 98° |
| 2026-04-25 00:41 | 26.71202 | -79.92377 | 7189 ft | 302 kts | 98° |
| 2026-04-25 00:41 | 26.70935 | -79.90070 | 8434 ft | 304 kts | 98° |
| 2026-04-25 00:41 | 26.70675 | -79.87783 | 9774 ft | 301 kts | 98° |
| 2026-04-25 00:41 | 26.70404 | -79.85451 | 10716 ft | 312 kts | 98° |
| 2026-04-25 00:42 | 26.70114 | -79.82954 | 11306 ft | 334 kts | 97° |
| 2026-04-25 00:42 | 26.69814 | -79.80360 | 12064 ft | 347 kts | 97° |
| 2026-04-25 00:42 | 26.69502 | -79.77666 | 12894 ft | 355 kts | 97° |
| 2026-04-25 00:42 | 26.69182 | -79.74892 | 13762 ft | 362 kts | 97° |
| 2026-04-25 00:43 | 26.68862 | -79.72125 | 14617 ft | 368 kts | 97° |
| 2026-04-25 00:43 | 26.68530 | -79.69260 | 15472 ft | 374 kts | 97° |
| 2026-04-25 00:43 | 26.68195 | -79.66365 | 16312 ft | 379 kts | 97° |
| 2026-04-25 00:43 | 26.67923 | -79.63418 | 17112 ft | 385 kts | 91° |
| 2026-04-25 00:44 | 26.67891 | -79.60440 | 17872 ft | 391 kts | 89° |
| 2026-04-25 00:44 | 26.67885 | -79.57398 | 18650 ft | 396 kts | 89° |
| 2026-04-25 00:44 | 26.67875 | -79.54314 | 19389 ft | 401 kts | 89° |
| 2026-04-25 00:44 | 26.67865 | -79.51206 | 20126 ft | 406 kts | 89° |
| 2026-04-25 00:45 | 26.67852 | -79.48040 | 20841 ft | 410 kts | 89° |
| 2026-04-25 00:45 | 26.67837 | -79.44853 | 21548 ft | 414 kts | 89° |
| 2026-04-25 00:45 | 26.67822 | -79.41622 | 22227 ft | 418 kts | 89° |
| 2026-04-25 00:45 | 26.67806 | -79.38363 | 22880 ft | 422 kts | 89° |
| 2026-04-25 00:46 | 26.67789 | -79.35061 | 23518 ft | 427 kts | 89° |
| 2026-04-25 00:46 | 26.67771 | -79.31753 | 24147 ft | 431 kts | 90° |
| 2026-04-25 00:46 | 26.67732 | -79.25002 | 25376 ft | 439 kts | 90° |
| 2026-04-25 00:47 | 26.67710 | -79.21600 | 25959 ft | 443 kts | 89° |
| 2026-04-25 00:47 | 26.67688 | -79.18111 | 26538 ft | 447 kts | 90° |
| 2026-04-25 00:47 | 26.67421 | -79.14632 | 27115 ft | 451 kts | 102° |
| 2026-04-25 00:47 | 26.66397 | -79.11303 | 27650 ft | 454 kts | 115° |
| 2026-04-25 00:48 | 26.65030 | -79.08127 | 28148 ft | 459 kts | 116° |
| 2026-04-25 00:48 | 26.63626 | -79.04867 | 28691 ft | 462 kts | 116° |
| 2026-04-25 00:48 | 26.62236 | -79.01636 | 29320 ft | 462 kts | 116° |
| 2026-04-25 00:48 | 26.60846 | -78.98409 | 30009 ft | 460 kts | 116° |
| 2026-04-25 00:49 | 26.59469 | -78.95210 | 30702 ft | 457 kts | 116° |
| 2026-04-25 00:49 | 26.58079 | -78.91985 | 31387 ft | 454 kts | 116° |
| 2026-04-25 00:49 | 26.56718 | -78.88829 | 32033 ft | 452 kts | 116° |
| 2026-04-25 00:49 | 26.55358 | -78.85678 | 32676 ft | 450 kts | 116° |
| 2026-04-25 00:50 | 26.54009 | -78.82552 | 33296 ft | 449 kts | 116° |
| 2026-04-25 00:50 | 26.52658 | -78.79427 | 33904 ft | 447 kts | 117° |
| 2026-04-25 00:50 | 26.51196 | -78.76370 | 34488 ft | 444 kts | 123° |
| 2026-04-25 00:50 | 26.49522 | -78.73511 | 35004 ft | 442 kts | 125° |
| 2026-04-25 00:51 | 26.47829 | -78.70651 | 35516 ft | 441 kts | 125° |
| 2026-04-25 00:51 | 26.46145 | -78.67800 | 36032 ft | 439 kts | 125° |
| 2026-04-25 00:51 | 26.44461 | -78.64951 | 36501 ft | 438 kts | 125° |
| 2026-04-25 00:51 | 26.42799 | -78.62141 | 36899 ft | 437 kts | 125° |
| 2026-04-25 00:52 | 26.41104 | -78.59275 | 37283 ft | 437 kts | 125° |
| 2026-04-25 00:52 | 26.39454 | -78.56486 | 37652 ft | 436 kts | 125° |
| 2026-04-25 00:52 | 26.37769 | -78.53641 | 38003 ft | 436 kts | 125° |
| 2026-04-25 00:52 | 26.36094 | -78.50811 | 38324 ft | 436 kts | 125° |
| 2026-04-25 00:53 | 26.34441 | -78.48022 | 38633 ft | 435 kts | 125° |
| 2026-04-25 00:53 | 26.32776 | -78.45213 | 38940 ft | 435 kts | 125° |
| 2026-04-25 00:53 | 26.31118 | -78.42416 | 39242 ft | 434 kts | 126° |
| 2026-04-25 00:53 | 26.29443 | -78.39593 | 39523 ft | 434 kts | 126° |
| 2026-04-25 00:54 | 26.27803 | -78.36832 | 39830 ft | 433 kts | 126° |
| 2026-04-25 00:54 | 26.26140 | -78.34030 | 40114 ft | 433 kts | 126° |
| 2026-04-25 00:54 | 26.24481 | -78.31239 | 40382 ft | 432 kts | 126° |
| 2026-04-25 00:54 | 26.22830 | -78.28463 | 40544 ft | 432 kts | 126° |
| 2026-04-25 00:55 | 26.21162 | -78.25659 | 40674 ft | 433 kts | 126° |
| 2026-04-25 00:55 | 26.19509 | -78.22883 | 40791 ft | 434 kts | 126° |